Time;durP1;ratioP1;P1;durP2;ratioP2;P2;SDS_P1;SDS_P2;PMS_P1;PMS_P2;Temp;Humidity;BMP_temperature;BMP_pressure;BME280_temperature;BME280_humidity;BME280_pressure;Samples;Min_cycle;Max_cycle;Signal;HPM_P1;HPM_P2
2024/01/12 00:00:35;;;;;;;769.33;710.15;;;1.10;99.90;;;;;;5006692;28;20088;-79
2024/01/12 00:03:02;;;;;;;785.08;724.30;;;1.20;99.90;;;;;;5005552;28;20558;-79
2024/01/12 00:05:28;;;;;;;811.03;747.35;;;1.50;99.90;;;;;;4999091;28;20391;-80
2024/01/12 00:07:54;;;;;;;788.33;727.25;;;1.60;99.90;;;;;;5035801;28;20478;-78
2024/01/12 00:10:20;;;;;;;743.40;686.92;;;1.80;99.90;;;;;;5004121;28;20050;-79
2024/01/12 00:12:45;;;;;;;796.40;734.95;;;2.00;99.90;;;;;;5005148;28;20079;-79
2024/01/12 00:15:11;;;;;;;745.63;688.75;;;1.30;99.90;;;;;;5003641;28;20472;-79
2024/01/12 00:17:37;;;;;;;719.95;664.72;;;1.30;99.90;;;;;;5003646;28;20069;-79
2024/01/12 00:20:04;;;;;;;718.05;663.75;;;2.10;99.90;;;;;;5004578;28;20064;-79
2024/01/12 00:22:30;;;;;;;782.45;723.65;;;1.30;99.90;;;;;;4992145;28;20050;-79
2024/01/12 00:24:56;;;;;;;785.95;726.47;;;1.30;99.90;;;;;;4985228;28;20053;-78
2024/01/12 00:27:22;;;;;;;798.92;737.92;;;1.60;99.90;;;;;;4985056;28;20060;-78
2024/01/12 00:29:47;;;;;;;727.63;673.03;;;2.10;99.90;;;;;;4970068;28;20038;-79
2024/01/12 00:32:13;;;;;;;781.70;722.22;;;2.10;99.90;;;;;;4984430;28;20050;-79
2024/01/12 00:34:39;;;;;;;744.85;688.28;;;1.70;99.90;;;;;;4985371;28;20051;-79
2024/01/12 00:37:04;;;;;;;767.75;708.22;;;2.40;99.90;;;;;;4986179;28;20054;-78
2024/01/12 00:39:30;;;;;;;750.42;694.13;;;2.20;99.90;;;;;;5001029;28;20081;-78
2024/01/12 00:41:56;;;;;;;726.85;673.10;;;2.20;99.90;;;;;;4989957;28;20038;-79
2024/01/12 00:44:21;;;;;;;741.30;685.38;;;2.20;99.90;;;;;;4993171;28;20161;-79
2024/01/12 00:46:55;;;;;;;711.63;658.42;;;1.50;99.90;;;;;;4999050;28;20049;-79
2024/01/12 00:49:20;;;;;;;;;;;1.50;99.90;;;;;;4992889;28;20041;-79
2024/01/12 00:51:46;;;;;;;759.47;702.42;;;2.00;99.90;;;;;;4992301;28;19932;-78
2024/01/12 00:54:13;;;;;;;713.35;660.35;;;1.80;99.90;;;;;;5002960;28;20085;-78
2024/01/12 00:56:38;;;;;;;703.78;650.85;;;1.40;99.90;;;;;;5004025;28;20046;-78
2024/01/12 00:59:05;;;;;;;735.47;679.78;;;1.60;99.90;;;;;;5006093;28;20048;-78
2024/01/12 01:01:31;;;;;;;700.42;647.78;;;2.10;99.90;;;;;;5002434;28;20482;-79
2024/01/12 01:03:57;;;;;;;711.35;657.90;;;2.10;99.90;;;;;;5004534;28;20044;-78
2024/01/12 01:06:22;;;;;;;742.17;684.88;;;2.10;99.90;;;;;;5002155;28;20056;-79
2024/01/12 01:08:48;;;;;;;729.58;675.50;;;2.20;99.90;;;;;;5004512;28;20110;-78
2024/01/12 01:11:15;;;;;;;687.03;635.85;;;2.10;99.90;;;;;;5003638;28;20058;-79
2024/01/12 01:13:41;;;;;;;712.20;658.83;;;2.10;99.90;;;;;;5004473;28;20042;-79
2024/01/12 01:16:07;;;;;;;721.45;667.38;;;1.50;99.90;;;;;;5004987;28;20119;-78
2024/01/12 01:18:33;;;;;;;707.22;655.10;;;1.80;99.90;;;;;;4986412;28;20574;-78
2024/01/12 01:20:59;;;;;;;699.45;647.42;;;2.30;99.90;;;;;;5004131;28;20056;-78
2024/01/12 01:23:25;;;;;;;724.90;671.22;;;1.60;99.90;;;;;;5003515;28;20055;-78
2024/01/12 01:25:51;;;;;;;742.25;687.00;;;2.20;99.90;;;;;;5003601;28;20353;-78
2024/01/12 01:28:17;;;;;;;736.22;681.50;;;1.80;99.90;;;;;;4985558;28;20043;-78
2024/01/12 01:30:42;;;;;;;734.95;680.30;;;1.70;99.90;;;;;;4984304;28;20046;-78
2024/01/12 01:33:08;;;;;;;715.83;662.58;;;2.10;99.90;;;;;;5001206;28;20057;-78
2024/01/12 01:35:34;;;;;;;694.45;642.88;;;2.20;99.90;;;;;;5004402;28;20038;-78
2024/01/12 01:38:00;;;;;;;738.30;682.75;;;1.60;99.90;;;;;;5001759;28;20490;-78
2024/01/12 01:40:26;;;;;;;726.33;671.65;;;2.30;99.90;;;;;;5003401;28;20038;-78
2024/01/12 01:42:52;;;;;;;700.38;648.28;;;2.10;99.90;;;;;;5002219;28;20162;-78
2024/01/12 01:45:17;;;;;;;688.13;637.30;;;2.10;99.90;;;;;;4992781;28;20088;-78
2024/01/12 01:47:45;;;;;;;680.22;629.65;;;1.70;99.90;;;;;;4988518;28;20045;-79
2024/01/12 01:50:13;;;;;;;738.03;683.40;;;1.90;99.90;;;;;;5002492;28;20053;-78
2024/01/12 01:52:39;;;;;;;726.33;672.22;;;2.10;99.90;;;;;;5004176;28;20030;-78
2024/01/12 01:55:05;;;;;;;665.10;616.50;;;2.00;99.90;;;;;;4996435;28;20099;-78
2024/01/12 01:57:32;;;;;;;693.72;642.75;;;1.70;99.90;;;;;;4999563;28;20128;-78
2024/01/12 01:59:58;;;;;;;652.72;604.58;;;2.30;99.90;;;;;;5002958;28;20058;-78
2024/01/12 02:02:24;;;;;;;629.30;583.22;;;2.10;99.90;;;;;;5004769;28;20129;-78
2024/01/12 02:04:52;;;;;;;700.22;648.30;;;2.20;99.90;;;;;;4999589;28;20491;-78
2024/01/12 02:07:17;;;;;;;715.60;661.72;;;2.40;99.90;;;;;;5004600;28;20045;-78
2024/01/12 02:09:44;;;;;;;707.03;654.88;;;2.10;99.90;;;;;;4998021;28;20045;-78
2024/01/12 02:12:10;;;;;;;745.42;688.97;;;2.20;99.90;;;;;;5002424;28;20049;-79
2024/01/12 02:14:35;;;;;;;673.55;624.33;;;2.30;99.90;;;;;;5002339;28;20054;-78
2024/01/12 02:17:02;;;;;;;719.67;666.10;;;2.20;99.90;;;;;;5002151;28;20042;-78
2024/01/12 02:19:27;;;;;;;680.95;630.65;;;1.90;99.90;;;;;;5003222;28;20387;-78
2024/01/12 02:21:53;;;;;;;620.05;574.00;;;2.30;99.90;;;;;;4986513;28;20546;-78
2024/01/12 02:24:19;;;;;;;649.15;601.38;;;2.30;99.90;;;;;;5002522;28;20057;-78
2024/01/12 02:26:45;;;;;;;715.63;662.83;;;1.90;99.90;;;;;;5002292;28;20080;-79
2024/01/12 02:29:11;;;;;;;715.38;662.25;;;2.20;99.90;;;;;;5004069;28;20065;-78
2024/01/12 02:31:36;;;;;;;727.97;673.58;;;2.70;99.90;;;;;;4989709;28;20050;-78
2024/01/12 02:34:02;;;;;;;747.80;690.88;;;2.30;99.90;;;;;;5002175;28;20062;-78
2024/01/12 02:36:28;;;;;;;696.90;646.05;;;2.30;99.90;;;;;;5005460;28;20057;-78
2024/01/12 02:38:55;;;;;;;699.03;647.55;;;2.40;99.90;;;;;;5006868;28;20053;-79
2024/01/12 02:41:21;;;;;;;658.45;610.42;;;1.80;99.90;;;;;;5006217;28;20084;-79
2024/01/12 02:43:47;;;;;;;655.00;606.42;;;2.00;99.90;;;;;;5006087;28;20084;-79
2024/01/12 02:46:13;;;;;;;608.67;564.50;;;1.40;99.90;;;;;;5000762;28;20046;-79
2024/01/12 02:48:39;;;;;;;616.15;570.58;;;1.40;99.90;;;;;;4986340;28;20107;-79
2024/01/12 02:51:06;;;;;;;557.20;518.45;;;1.80;99.90;;;;;;4994320;28;20061;-78
2024/01/12 02:53:32;;;;;;;555.67;516.22;;;2.00;99.90;;;;;;5004241;28;20142;-78
2024/01/12 02:55:59;;;;;;;563.60;523.42;;;0.90;99.90;;;;;;5006710;28;20535;-78
2024/01/12 02:58:25;;;;;;;534.10;497.17;;;0.90;99.90;;;;;;5006743;28;20478;-78
2024/01/12 03:00:52;;;;;;;557.92;518.88;;;1.70;99.90;;;;;;5006918;28;20057;-78
2024/01/12 03:03:18;;;;;;;623.42;577.70;;;1.40;99.90;;;;;;5004023;28;20046;-78
2024/01/12 03:05:44;;;;;;;569.40;529.00;;;0.80;99.90;;;;;;4969964;28;20046;-78
2024/01/12 03:08:10;;;;;;;583.47;541.35;;;1.60;99.90;;;;;;4984871;28;20147;-78
2024/01/12 03:10:37;;;;;;;736.20;681.30;;;0.90;99.90;;;;;;4988285;28;20147;-78
2024/01/12 03:13:03;;;;;;;749.90;693.55;;;0.70;99.90;;;;;;4985927;28;20471;-78
2024/01/12 03:15:29;;;;;;;780.13;720.53;;;0.80;99.90;;;;;;4986578;28;20046;-78
2024/01/12 03:17:56;;;;;;;772.67;712.92;;;2.10;99.90;;;;;;4988489;28;20050;-79
2024/01/12 03:20:22;;;;;;;750.22;693.72;;;0.90;99.90;;;;;;4987914;28;20038;-79
2024/01/12 03:22:48;;;;;;;778.75;718.72;;;2.30;99.90;;;;;;4987186;28;20038;-79
2024/01/12 03:25:14;;;;;;;750.30;693.92;;;1.20;99.90;;;;;;4967417;28;20051;-78
2024/01/12 03:27:39;;;;;;;765.10;706.97;;;1.10;99.90;;;;;;4984117;28;20046;-78
2024/01/12 03:30:05;;;;;;;711.08;658.40;;;1.50;99.90;;;;;;5005807;28;20457;-79
2024/01/12 03:32:33;;;;;;;738.45;682.78;;;0.90;99.90;;;;;;4980944;28;20041;-79
2024/01/12 03:34:59;;;;;;;721.33;666.97;;;1.90;99.90;;;;;;4992011;28;20401;-78
2024/01/12 03:37:25;;;;;;;680.42;629.90;;;0.90;99.90;;;;;;4991904;28;20046;-78
2024/01/12 03:39:51;;;;;;;686.58;635.47;;;1.00;99.90;;;;;;4992889;28;20127;-79
2024/01/12 03:42:17;;;;;;;751.03;694.40;;;1.70;99.90;;;;;;5005693;28;20037;-79
2024/01/12 03:44:42;;;;;;;688.53;637.30;;;1.60;99.90;;;;;;5004919;28;20060;-79
2024/01/12 03:47:08;;;;;;;782.08;721.83;;;1.60;99.90;;;;;;5002801;28;20031;-79
2024/01/12 03:49:34;;;;;;;741.47;685.05;;;1.90;99.90;;;;;;4985664;28;20472;-78
2024/01/12 03:52:00;;;;;;;791.40;730.30;;;1.90;99.90;;;;;;4969805;28;20041;-78
2024/01/12 03:54:25;;;;;;;794.67;734.05;;;1.50;99.90;;;;;;5000619;28;20053;-79
2024/01/12 03:56:52;;;;;;;747.08;690.20;;;1.20;99.90;;;;;;5005807;28;20046;-78
2024/01/12 03:59:18;;;;;;;807.92;745.85;;;2.60;99.90;;;;;;4997524;28;20497;-78
2024/01/12 04:01:46;;;;;;;801.35;740.13;;;2.00;99.90;;;;;;4975748;28;20039;-78
2024/01/12 04:04:12;;;;;;;781.40;721.20;;;1.30;99.90;;;;;;4995737;28;20053;-79
2024/01/12 04:06:39;;;;;;;784.90;724.80;;;1.40;99.90;;;;;;4997646;28;20039;-78
2024/01/12 04:09:05;;;;;;;769.97;710.38;;;1.40;99.90;;;;;;4993127;28;20049;-78
2024/01/12 04:11:31;;;;;;;760.22;702.78;;;1.50;99.90;;;;;;4996458;28;20042;-78
2024/01/12 04:13:56;;;;;;;755.92;698.20;;;1.60;99.90;;;;;;4996796;28;20102;-78
2024/01/12 04:16:22;;;;;;;797.15;734.78;;;1.70;99.90;;;;;;4995151;28;20045;-78
2024/01/12 04:18:48;;;;;;;767.47;708.80;;;1.50;99.90;;;;;;4996528;28;20050;-79
2024/01/12 04:21:13;;;;;;;750.75;692.55;;;1.60;99.90;;;;;;4996455;28;20099;-79
2024/01/12 04:23:39;;;;;;;735.35;679.97;;;1.80;99.90;;;;;;4978135;28;20090;-79
2024/01/12 04:26:06;;;;;;;745.42;689.15;;;1.60;99.90;;;;;;4995885;28;20074;-78
2024/01/12 04:28:32;;;;;;;746.95;690.65;;;1.90;99.90;;;;;;4996334;28;20577;-79
2024/01/12 04:31:00;;;;;;;750.08;693.20;;;2.20;99.90;;;;;;5005489;28;20405;-79
2024/01/12 04:33:25;;;;;;;716.80;661.85;;;1.60;99.90;;;;;;5003147;28;20058;-78
2024/01/12 04:35:51;;;;;;;672.47;621.60;;;1.40;99.90;;;;;;4986565;28;20046;-78
2024/01/12 04:38:17;;;;;;;678.80;627.60;;;1.80;99.90;;;;;;4985233;28;20496;-78
2024/01/12 04:40:43;;;;;;;682.25;631.05;;;1.40;99.90;;;;;;4985272;28;20045;-78
2024/01/12 04:43:08;;;;;;;701.42;648.50;;;1.40;99.90;;;;;;4989937;28;20107;-79
2024/01/12 04:45:34;;;;;;;735.03;679.88;;;1.30;99.90;;;;;;4988757;28;20481;-79
2024/01/12 04:48:00;;;;;;;756.30;698.45;;;2.00;99.90;;;;;;4990266;28;20054;-79
2024/01/12 04:50:25;;;;;;;743.22;686.95;;;1.90;99.90;;;;;;4981555;28;20131;-78
2024/01/12 04:52:52;;;;;;;757.78;699.67;;;2.50;99.90;;;;;;4983761;28;20069;-79
2024/01/12 04:55:18;;;;;;;750.03;692.90;;;1.30;99.90;;;;;;4969523;28;20111;-79
2024/01/12 04:57:44;;;;;;;750.90;694.38;;;1.70;99.90;;;;;;4986138;28;20506;-79
2024/01/12 05:00:10;;;;;;;750.88;693.13;;;1.60;99.90;;;;;;4979977;28;20049;-79
2024/01/12 05:02:36;;;;;;;705.55;652.45;;;1.20;99.90;;;;;;5005510;28;20049;-79
2024/01/12 05:05:04;;;;;;;755.85;697.95;;;1.60;99.90;;;;;;4998890;28;20042;-79
2024/01/12 05:07:30;;;;;;;737.38;681.42;;;1.10;99.90;;;;;;4984436;28;20470;-79
2024/01/12 05:09:56;;;;;;;743.08;686.67;;;1.20;99.90;;;;;;4997851;28;20052;-79
2024/01/12 05:12:22;;;;;;;700.47;648.13;;;1.70;99.90;;;;;;5003340;28;20030;-79
2024/01/12 05:14:48;;;;;;;747.72;690.65;;;1.10;99.90;;;;;;5003857;28;20569;-79
2024/01/12 05:17:14;;;;;;;681.70;630.53;;;1.70;99.90;;;;;;5010029;28;20057;-79
2024/01/12 05:19:39;;;;;;;736.40;680.80;;;1.60;99.90;;;;;;4997184;28;20112;-79
2024/01/12 05:22:05;;;;;;;750.25;692.60;;;0.90;99.90;;;;;;4999004;28;20432;-79
2024/01/12 05:24:31;;;;;;;776.65;715.67;;;2.00;99.90;;;;;;5001161;28;20509;-79
2024/01/12 05:26:57;;;;;;;793.05;731.55;;;1.40;99.90;;;;;;4996906;28;20667;-79
2024/01/12 05:29:22;;;;;;;791.72;729.40;;;1.30;99.90;;;;;;4986152;28;20069;-79
2024/01/12 05:31:48;;;;;;;739.55;682.83;;;1.80;99.90;;;;;;4984564;28;20042;-79
2024/01/12 05:34:14;;;;;;;690.55;637.80;;;1.10;99.90;;;;;;4984146;28;20137;-79
2024/01/12 05:36:39;;;;;;;742.42;685.90;;;0.80;99.90;;;;;;5003210;28;20045;-79
2024/01/12 05:39:05;;;;;;;731.15;674.03;;;0.80;99.90;;;;;;5004609;28;20046;-79
2024/01/12 05:41:32;;;;;;;775.95;715.80;;;1.80;99.90;;;;;;5003749;28;20046;-79
2024/01/12 05:43:58;;;;;;;703.92;649.67;;;1.30;99.90;;;;;;5004094;28;20520;-79
2024/01/12 05:46:23;;;;;;;717.63;663.47;;;1.80;99.90;;;;;;5005595;28;20074;-79
2024/01/12 05:48:49;;;;;;;729.38;673.38;;;1.80;99.90;;;;;;4966855;28;20355;-79
2024/01/12 05:51:15;;;;;;;759.55;700.58;;;1.40;99.90;;;;;;5007884;28;20050;-79
2024/01/12 05:53:41;;;;;;;824.13;758.92;;;1.30;99.90;;;;;;4993013;28;20046;-78
2024/01/12 05:56:08;;;;;;;784.95;723.25;;;1.90;99.90;;;;;;4993884;28;20373;-79
2024/01/12 05:58:34;;;;;;;847.58;779.78;;;0.90;99.90;;;;;;4975856;28;20427;-79
2024/01/12 06:00:59;;;;;;;788.83;727.15;;;2.10;99.90;;;;;;4986079;28;20030;-79
2024/01/12 06:03:28;;;;;;;774.50;714.20;;;1.80;99.90;;;;;;5032107;28;20507;-79
2024/01/12 06:05:54;;;;;;;852.58;783.70;;;1.20;99.90;;;;;;4984831;28;20047;-78
2024/01/12 06:08:20;;;;;;;787.55;726.10;;;1.40;99.90;;;;;;4991884;28;20050;-78
2024/01/12 06:10:46;;;;;;;814.70;751.30;;;2.00;99.90;;;;;;5000897;28;20042;-79
2024/01/12 06:13:12;;;;;;;830.83;763.65;;;2.60;99.90;;;;;;4994375;28;20478;-78
2024/01/12 06:15:37;;;;;;;790.03;727.97;;;1.40;99.90;;;;;;5000478;28;20494;-78
2024/01/12 06:18:04;;;;;;;798.15;734.88;;;1.40;99.90;;;;;;4991333;28;20054;-78
2024/01/12 06:20:29;;;;;;;790.67;729.33;;;1.40;99.90;;;;;;4991733;28;20038;-78
2024/01/12 06:22:56;;;;;;;774.70;714.63;;;2.00;99.90;;;;;;5025837;28;20069;-79
2024/01/12 06:25:21;;;;;;;786.47;725.38;;;1.40;99.90;;;;;;4996988;28;20037;-79
2024/01/12 06:27:47;;;;;;;797.17;733.00;;;1.80;99.90;;;;;;4993590;28;20496;-78
2024/01/12 06:30:13;;;;;;;790.67;729.30;;;1.80;99.90;;;;;;4994497;28;20430;-78
2024/01/12 06:32:39;;;;;;;745.47;688.78;;;1.50;99.90;;;;;;4992065;28;20144;-79
2024/01/12 06:35:08;;;;;;;771.35;712.65;;;1.60;99.90;;;;;;4994509;28;20525;-78
2024/01/12 06:37:34;;;;;;;753.65;696.10;;;1.50;99.90;;;;;;4992518;28;20449;-78
2024/01/12 06:40:00;;;;;;;818.33;754.97;;;1.60;99.90;;;;;;4997055;28;20042;-78
2024/01/12 06:42:28;;;;;;;772.55;712.72;;;1.60;99.90;;;;;;4989914;28;20050;-79
2024/01/12 06:44:54;;;;;;;792.90;731.63;;;2.10;99.90;;;;;;4989612;28;20074;-79
2024/01/12 06:47:20;;;;;;;754.50;696.72;;;2.10;99.90;;;;;;4990063;28;20049;-79
2024/01/12 06:49:45;;;;;;;777.47;717.97;;;1.60;99.90;;;;;;4994637;28;20413;-79
2024/01/12 06:52:12;;;;;;;754.75;697.22;;;1.60;99.90;;;;;;5000276;28;20048;-79
2024/01/12 06:54:43;;;;;;;776.60;716.47;;;2.50;99.90;;;;;;5004207;28;20071;-79
2024/01/12 06:57:08;;;;;;;808.70;746.05;;;1.80;99.90;;;;;;5003050;28;20459;-79
2024/01/12 06:59:34;;;;;;;765.85;706.63;;;2.20;99.90;;;;;;4997737;28;20054;-79
2024/01/12 07:02:00;;;;;;;737.35;681.38;;;2.70;99.90;;;;;;4996539;28;20030;-79
2024/01/12 07:04:25;;;;;;;788.83;727.80;;;1.70;99.90;;;;;;4991525;28;20436;-80
2024/01/12 07:06:52;;;;;;;741.22;684.88;;;1.90;99.90;;;;;;4991473;28;20042;-79
2024/01/12 07:09:19;;;;;;;746.53;689.72;;;1.80;99.90;;;;;;4992619;28;20074;-78
2024/01/12 07:11:45;;;;;;;763.65;705.08;;;2.20;99.90;;;;;;4994406;28;20034;-80
2024/01/12 07:14:14;;;;;;;780.22;719.97;;;2.00;99.90;;;;;;4993068;28;20129;-79
2024/01/12 07:16:40;;;;;;;741.55;685.17;;;1.90;99.90;;;;;;4995867;28;20046;-79
2024/01/12 07:19:06;;;;;;;763.38;703.75;;;2.30;99.90;;;;;;4993333;28;20104;-80
2024/01/12 07:21:33;;;;;;;749.30;692.55;;;2.20;99.90;;;;;;4997288;28;20550;-80
2024/01/12 07:23:59;;;;;;;730.72;675.88;;;2.00;99.90;;;;;;4995548;28;20046;-79
2024/01/12 07:26:25;;;;;;;717.90;663.35;;;2.00;99.90;;;;;;4997936;28;20519;-79
2024/01/12 07:28:51;;;;;;;720.35;665.83;;;2.40;99.90;;;;;;4996044;28;20138;-80
2024/01/12 07:31:17;;;;;;;705.70;652.60;;;2.50;99.90;;;;;;4977483;28;20118;-79
2024/01/12 07:33:43;;;;;;;752.13;695.08;;;2.70;99.90;;;;;;4992466;28;20072;-80
2024/01/12 07:36:09;;;;;;;695.05;642.35;;;2.30;99.90;;;;;;4998992;28;20042;-79
2024/01/12 07:38:35;;;;;;;694.53;642.55;;;2.00;99.90;;;;;;4994094;28;20050;-79
2024/01/12 07:41:01;;;;;;;687.80;635.97;;;2.10;99.90;;;;;;4998769;28;20046;-80
2024/01/12 07:43:27;;;;;;;685.85;634.38;;;2.50;99.90;;;;;;4975476;28;20128;-79
2024/01/12 07:45:53;;;;;;;710.72;657.28;;;2.60;99.90;;;;;;5000729;28;20105;-80
2024/01/12 07:48:20;;;;;;;656.38;606.90;;;2.40;99.90;;;;;;5007090;28;20066;-80
2024/01/12 07:50:46;;;;;;;634.50;586.78;;;2.60;99.90;;;;;;5003725;28;20528;-80
2024/01/12 07:53:11;;;;;;;637.92;590.08;;;2.20;99.90;;;;;;4998491;28;20038;-81
2024/01/12 07:55:38;;;;;;;685.33;634.25;;;2.60;99.90;;;;;;5050686;28;20116;-79
2024/01/12 07:58:04;;;;;;;638.45;590.15;;;2.30;99.90;;;;;;4984590;28;20051;-80
2024/01/12 08:00:30;;;;;;;626.63;580.38;;;2.20;99.90;;;;;;5003876;28;20096;-80
2024/01/12 08:02:56;;;;;;;655.67;607.20;;;2.50;99.90;;;;;;4980366;28;20490;-80
2024/01/12 08:05:22;;;;;;;677.88;627.28;;;2.20;99.90;;;;;;5029519;28;20052;-80
2024/01/12 08:07:49;;;;;;;621.88;575.75;;;2.10;99.90;;;;;;4990112;28;20053;-79
2024/01/12 08:10:16;;;;;;;684.47;633.10;;;2.20;99.90;;;;;;4995655;28;20121;-80
2024/01/12 08:12:42;;;;;;;620.65;575.17;;;2.30;99.90;;;;;;4990842;28;20638;-80
2024/01/12 08:15:09;;;;;;;613.33;567.15;;;2.70;99.90;;;;;;4997738;28;20038;-80
2024/01/12 08:17:37;;;;;;;644.35;596.95;;;2.30;99.90;;;;;;5003372;28;20432;-80
2024/01/12 08:20:03;;;;;;;622.95;576.95;;;2.30;99.90;;;;;;5005632;28;20057;-81
2024/01/12 08:22:29;;;;;;;700.28;647.45;;;2.30;99.90;;;;;;4990398;28;20047;-81
2024/01/12 08:24:55;;;;;;;630.90;584.22;;;2.40;99.90;;;;;;5012099;28;20509;-81
2024/01/12 08:27:20;;;;;;;614.38;569.00;;;2.50;99.90;;;;;;4996332;28;20041;-81
2024/01/12 08:29:47;;;;;;;641.17;593.33;;;2.60;99.90;;;;;;5027138;28;20050;-81
2024/01/12 08:32:12;;;;;;;634.20;587.08;;;2.60;99.90;;;;;;4996250;28;20061;-81
2024/01/12 08:34:39;;;;;;;615.67;570.70;;;2.60;99.90;;;;;;4994244;28;20392;-81
2024/01/12 08:37:06;;;;;;;589.40;545.67;;;2.70;99.90;;;;;;5002415;28;20053;-80
2024/01/12 08:39:32;;;;;;;564.25;524.17;;;2.80;99.90;;;;;;5005439;28;20076;-81
2024/01/12 08:41:58;;;;;;;576.47;535.00;;;3.50;99.90;;;;;;5006252;28;20038;-81
2024/01/12 08:44:24;;;;;;;561.08;521.08;;;2.90;99.90;;;;;;5002703;28;20774;-80
2024/01/12 08:46:52;;;;;;;548.58;509.33;;;2.90;99.90;;;;;;5002992;28;20133;-80
2024/01/12 08:49:18;;;;;;;522.92;486.27;;;2.90;99.90;;;;;;5000660;28;20046;-81
2024/01/12 08:51:44;;;;;;;537.25;499.73;;;2.90;99.90;;;;;;5003860;28;20042;-80
2024/01/12 08:54:10;;;;;;;551.63;511.98;;;2.80;99.90;;;;;;5004562;28;20190;-80
2024/01/12 08:56:36;;;;;;;527.15;490.20;;;2.80;99.90;;;;;;5004027;28;20049;-81
2024/01/12 08:59:02;;;;;;;509.23;473.15;;;2.80;99.90;;;;;;4979620;28;20047;-81
2024/01/12 09:01:27;;;;;;;490.58;456.70;;;3.10;99.90;;;;;;4998242;28;20057;-80
2024/01/12 09:03:53;;;;;;;508.95;473.40;;;2.90;99.90;;;;;;5004225;28;20068;-80
2024/01/12 09:06:19;;;;;;;543.63;504.63;;;2.80;99.90;;;;;;4991689;28;20050;-80
2024/01/12 09:08:44;;;;;;;516.70;479.38;;;2.80;99.90;;;;;;4977478;28;20101;-80
2024/01/12 09:11:11;;;;;;;491.98;457.60;;;3.10;99.90;;;;;;4984703;28;20731;-80
2024/01/12 09:13:37;;;;;;;530.53;492.40;;;2.90;99.90;;;;;;4983952;28;20046;-80
2024/01/12 09:16:03;;;;;;;492.60;458.55;;;3.50;99.90;;;;;;4986861;28;20054;-80
2024/01/12 09:18:29;;;;;;;541.63;503.20;;;2.90;99.90;;;;;;4968076;28;20387;-80
2024/01/12 09:20:55;;;;;;;511.67;475.70;;;2.90;99.90;;;;;;5033310;28;20037;-80
2024/01/12 09:23:20;;;;;;;503.13;467.10;;;2.90;99.90;;;;;;5004676;28;20115;-79
2024/01/12 09:25:47;;;;;;;532.08;494.55;;;3.10;99.90;;;;;;5002515;28;20550;-80
2024/01/12 09:28:13;;;;;;;533.40;495.00;;;3.00;99.90;;;;;;5001785;28;20156;-79
2024/01/12 09:30:41;;;;;;;537.78;499.17;;;3.00;99.90;;;;;;5004602;28;20089;-79
2024/01/12 09:33:06;;;;;;;536.22;497.88;;;3.10;99.90;;;;;;5001785;28;20458;-80
2024/01/12 09:35:32;;;;;;;476.25;443.00;;;3.10;99.90;;;;;;4993994;28;20056;-80
2024/01/12 09:37:58;;;;;;;539.13;500.08;;;3.10;99.90;;;;;;5032305;28;20125;-80
2024/01/12 09:40:23;;;;;;;512.67;476.33;;;3.10;99.90;;;;;;5048157;28;20603;-80
2024/01/12 09:42:50;;;;;;;519.45;483.63;;;3.20;99.90;;;;;;4999186;28;20050;-80
2024/01/12 09:45:17;;;;;;;549.40;509.65;;;3.30;99.90;;;;;;4996857;28;20117;-80
2024/01/12 09:47:43;;;;;;;525.53;489.20;;;3.30;99.90;;;;;;4983392;28;20556;-80
2024/01/12 09:50:10;;;;;;;538.50;500.73;;;2.80;99.90;;;;;;4983907;28;20043;-82
2024/01/12 09:52:37;;;;;;;537.53;498.50;;;3.50;99.90;;;;;;4993886;28;20054;-80
2024/01/12 09:55:05;;;;;;;526.88;489.02;;;3.40;99.90;;;;;;4973213;28;20050;-80
2024/01/12 09:57:32;;;;;;;559.35;519.45;;;3.40;99.90;;;;;;5002873;28;20050;-80
2024/01/12 09:59:59;;;;;;;590.42;547.22;;;3.40;99.90;;;;;;5004805;28;20050;-79
2024/01/12 10:02:24;;;;;;;563.72;523.38;;;3.40;99.90;;;;;;4976939;28;20096;-79
2024/01/12 10:04:52;;;;;;;514.33;477.85;;;3.60;99.90;;;;;;4973607;28;20046;-79
2024/01/12 10:07:17;;;;;;;521.05;484.25;;;3.50;99.90;;;;;;5016269;28;20042;-80
2024/01/12 10:09:43;;;;;;;545.65;506.90;;;3.40;99.90;;;;;;4998179;28;20053;-79
2024/01/12 10:12:09;;;;;;;510.17;474.80;;;4.00;99.90;;;;;;5002765;28;20046;-80
2024/01/12 10:14:35;;;;;;;574.75;533.65;;;3.50;99.90;;;;;;5000798;28;20528;-80
2024/01/12 10:17:00;;;;;;;512.55;476.50;;;3.80;99.90;;;;;;4983198;28;20054;-79
2024/01/12 10:19:26;;;;;;;569.55;528.97;;;4.10;99.90;;;;;;4983257;28;20054;-79
2024/01/12 10:21:52;;;;;;;525.85;489.00;;;3.70;99.90;;;;;;4983300;28;20065;-79
2024/01/12 10:24:20;;;;;;;545.45;506.05;;;3.70;99.90;;;;;;4983055;28;20057;-79
2024/01/12 10:26:46;;;;;;;555.08;516.22;;;3.70;99.90;;;;;;5002085;28;20046;-79
2024/01/12 10:29:14;;;;;;;515.83;479.80;;;3.80;99.90;;;;;;4998746;28;20051;-79
2024/01/12 10:31:43;;;;;;;518.28;482.23;;;3.70;99.90;;;;;;4986624;28;20061;-79
2024/01/12 10:34:11;;;;;;;526.22;489.38;;;3.80;99.90;;;;;;5017349;28;20481;-79
2024/01/12 10:36:39;;;;;;;506.58;471.08;;;3.80;99.90;;;;;;4997415;28;20061;-80
2024/01/12 10:39:07;;;;;;;528.70;492.00;;;3.80;99.90;;;;;;5002037;28;20038;-81
2024/01/12 10:41:34;;;;;;;575.78;535.00;;;4.40;99.90;;;;;;5002560;28;20409;-81
2024/01/12 10:44:04;;;;;;;582.08;540.17;;;3.80;99.90;;;;;;5002036;28;20117;-80
2024/01/12 10:46:40;;;;;;;575.58;533.45;;;3.80;99.90;;;;;;4989113;28;20046;-81
2024/01/12 10:49:14;;;;;;;558.03;516.88;;;3.80;99.90;;;;;;4979920;28;20064;-81
2024/01/12 10:51:53;;;;;;;588.92;545.30;;;3.80;99.90;;;;;;4975214;28;20043;-80
2024/01/12 10:54:26;;;;;;;605.10;559.85;;;3.80;99.90;;;;;;5011219;27;20047;-81
2024/01/12 10:56:53;;;;;;;;;;;3.90;99.90;;;;;;4988301;28;20042;-81
2024/01/12 10:59:19;;;;;;;596.67;552.65;;;3.80;99.90;;;;;;5003802;28;19922;-81
2024/01/12 11:01:47;;;;;;;571.33;530.70;;;3.80;99.90;;;;;;4988535;28;20394;-81
2024/01/12 11:04:13;;;;;;;600.40;556.63;;;3.80;99.90;;;;;;5001076;28;20054;-81
2024/01/12 11:06:42;;;;;;;590.55;546.83;;;3.70;99.90;;;;;;4989416;28;20457;-81
2024/01/12 11:09:12;;;;;;;594.83;550.83;;;3.80;99.90;;;;;;4987687;28;20079;-81
2024/01/12 11:11:51;;;;;;;623.67;577.25;;;4.00;99.90;;;;;;5000386;28;20046;-81
2024/01/12 11:14:20;;;;;;;629.92;583.58;;;3.80;99.90;;;;;;5005668;28;20044;-80
2024/01/12 11:16:46;;;;;;;630.40;583.00;;;3.80;99.90;;;;;;5005564;28;20130;-81
2024/01/12 11:19:13;;;;;;;618.67;572.63;;;3.80;99.90;;;;;;5004649;28;20113;-81
2024/01/12 11:21:40;;;;;;;635.03;587.63;;;3.80;99.90;;;;;;5004319;28;20037;-81
2024/01/12 11:24:07;;;;;;;563.33;522.28;;;3.90;99.90;;;;;;5005235;28;20405;-81
2024/01/12 11:26:33;;;;;;;605.15;560.97;;;3.80;99.90;;;;;;5005069;28;20050;-81
2024/01/12 11:28:59;;;;;;;579.03;537.13;;;4.00;99.90;;;;;;4988799;28;20056;-81
2024/01/12 11:31:26;;;;;;;571.33;529.78;;;3.80;99.90;;;;;;5006826;28;20477;-81
2024/01/12 11:33:58;;;;;;;624.00;577.72;;;4.00;99.90;;;;;;5004890;28;20102;-81
2024/01/12 11:36:27;;;;;;;566.88;526.00;;;3.90;99.90;;;;;;5004461;28;20117;-81
2024/01/12 11:38:55;;;;;;;588.60;545.92;;;3.90;99.90;;;;;;5003127;28;20120;-82
2024/01/12 11:41:27;;;;;;;588.17;545.22;;;4.10;99.90;;;;;;4999540;28;20038;-82
2024/01/12 11:43:53;;;;;;;599.92;555.10;;;4.00;99.90;;;;;;4987172;28;20068;-82
2024/01/12 11:46:19;;;;;;;592.65;548.28;;;4.00;99.90;;;;;;4995357;28;20053;-81
2024/01/12 11:48:47;;;;;;;539.90;501.20;;;4.10;99.90;;;;;;4990113;28;20038;-81
2024/01/12 11:51:21;;;;;;;559.88;518.65;;;4.10;99.90;;;;;;5004548;28;20045;-81
2024/01/12 11:53:49;;;;;;;603.10;557.90;;;4.10;99.90;;;;;;5002215;28;20049;-81
2024/01/12 11:56:15;;;;;;;558.35;517.30;;;4.20;99.90;;;;;;5005890;28;20046;-81
2024/01/12 11:58:42;;;;;;;599.55;555.05;;;4.20;99.90;;;;;;5002702;28;20186;-81
2024/01/12 12:01:08;;;;;;;549.72;509.83;;;4.20;99.90;;;;;;5003581;28;20570;-81
2024/01/12 12:03:34;;;;;;;557.80;517.17;;;4.20;99.90;;;;;;5003061;28;20184;-81
2024/01/12 12:05:59;;;;;;;579.72;537.13;;;4.30;99.90;;;;;;4990954;28;20137;-82
2024/01/12 12:08:27;;;;;;;607.05;562.05;;;4.30;99.90;;;;;;5036092;28;20058;-81
2024/01/12 12:10:53;;;;;;;620.63;575.20;;;4.30;99.90;;;;;;5005399;28;20151;-81
2024/01/12 12:13:19;;;;;;;586.65;543.88;;;4.80;99.90;;;;;;5002420;28;20132;-82